Terminal Aerodrome Forecast
Issued by NWS

Home | Current Version | Previous Version | Text Only | Print | Product List | Glossary On
Versions: 1 2 3 4 5 6 7 8 9 10 11 12 13 14 15 16 17 18 19 20 21
000
FTUS41 KGYX 261728
TAFPSM
TAF
KPSM 261728Z 2618/2718 36008KT 1SM -SN BKN006 OVC012
      TEMPO 2618/2620 1/2SM SN FG VV003
     FM262000 02012G22KT 1/2SM SN FG VV003
     FM262300 01017G27KT 1/4SM +SN FG VV002
     FM270300 36020G32KT 1SM -SN BR OVC006
     FM270800 32012KT P6SM -SHSN SCT025 BKN040 OVC060
     FM271200 31009KT P6SM SCT050 BKN080=

USA.gov is the U.S. government's official web portal to all federal, state and local government web resources and services.